createdAt,value
2023-04-06T00:01:42.710Z,14.6
2023-04-06T00:07:32.768Z,13.8
2023-04-06T00:13:23.577Z,14.4
2023-04-06T00:19:13.894Z,14.2
2023-04-06T00:25:03.797Z,14.3
2023-04-06T00:30:55.050Z,14.5
2023-04-06T00:36:46.666Z,13.9
2023-04-06T00:42:35.625Z,14.4
2023-04-06T00:48:25.808Z,13.8
2023-04-06T00:54:15.400Z,14.5
2023-04-06T01:00:05.244Z,14.3
2023-04-06T01:05:56.439Z,14.3
2023-04-06T01:11:46.021Z,13.6
2023-04-06T01:17:37.586Z,13.6
2023-04-06T01:23:28.701Z,14.4
2023-04-06T01:29:20.459Z,14.4
2023-04-06T01:35:12.073Z,14
2023-04-06T01:41:02.998Z,13.6
2023-04-06T01:46:55.021Z,14.2
2023-04-06T01:52:47.645Z,13.8
2023-04-06T01:58:39.047Z,13.6
2023-04-06T02:04:30.829Z,13.4
2023-04-06T02:10:20.340Z,13.9
2023-04-06T02:16:13.910Z,13.7
2023-04-06T02:22:05.465Z,14.8
2023-04-06T02:27:56.498Z,13.9
2023-04-06T02:33:47.792Z,13.4
2023-04-06T02:39:39.574Z,13.2
2023-04-06T02:45:31.955Z,13.3
2023-04-06T02:51:25.147Z,14.2
2023-04-06T02:57:17.668Z,14.2
2023-04-06T03:03:10.767Z,14.4
2023-04-06T03:09:03.948Z,14.3
2023-04-06T03:14:55.168Z,14.5
2023-04-06T03:20:47.041Z,14.7
2023-04-06T03:26:39.452Z,15.2
2023-04-06T03:32:31.086Z,15.3
2023-04-06T03:38:22.007Z,14.7
2023-04-06T03:44:13.628Z,15.6
2023-04-06T03:50:06.400Z,15.1
2023-04-06T03:55:58.611Z,15.5
2023-04-06T04:01:55.291Z,18.7
2023-04-06T04:07:45.602Z,16.1
2023-04-06T04:13:37.960Z,15.6
2023-04-06T04:19:31.340Z,15.7
2023-04-06T04:25:23.020Z,15
2023-04-06T04:31:14.132Z,15.1
2023-04-06T04:37:05.652Z,15.7
2023-04-06T04:42:57.911Z,14.9
2023-04-06T04:48:49.844Z,14.8
2023-04-06T04:54:40.631Z,14.9
2023-04-06T05:00:33.116Z,15.7
2023-04-06T05:06:28.490Z,14.6
2023-04-06T05:12:19.672Z,15
2023-04-06T05:18:14.436Z,14.8
2023-04-06T05:24:07.057Z,14.2
2023-04-06T05:30:01.412Z,14.9
2023-04-06T05:35:53.522Z,14.8
2023-04-06T05:41:47.332Z,14.4
2023-04-06T05:47:39.700Z,14.3
2023-04-06T05:53:30.717Z,14.5
2023-04-06T05:59:23.414Z,14.3
2023-04-06T06:05:15.705Z,14.3
2023-04-06T06:11:07.783Z,13.3
2023-04-06T06:16:58.797Z,13.2
2023-04-06T06:22:51.121Z,13.6
2023-04-06T06:28:43.394Z,14.1
2023-04-06T06:34:34.801Z,13.6
2023-04-06T06:40:25.656Z,13
2023-04-06T06:46:17.862Z,13.8
2023-04-06T06:52:12.490Z,12.6
2023-04-06T06:58:06.853Z,12.3
2023-04-06T07:03:57.021Z,12.4
2023-04-06T07:09:50.483Z,12.1
2023-04-06T07:15:42.307Z,12
2023-04-06T07:21:38.380Z,11.5
2023-04-06T07:27:30.143Z,11.3
2023-04-06T07:33:23.480Z,11.8
2023-04-06T07:39:15.988Z,11.8
2023-04-06T07:45:06.799Z,11.8
2023-04-06T07:50:59.580Z,12.1
2023-04-06T07:56:50.082Z,11.8
2023-04-06T08:02:45.366Z,12.3
2023-04-06T08:08:37.434Z,11.5
2023-04-06T08:14:29.778Z,11.4
2023-04-06T08:20:27.827Z,11.2
2023-04-06T08:26:19.697Z,11.1
2023-04-06T08:33:21.140Z,11.9
2023-04-06T08:39:12.036Z,10.9
2023-04-06T08:45:05.805Z,11.6
2023-04-06T08:51:00.048Z,11.6
2023-04-06T08:56:51.965Z,11.1
2023-04-06T09:02:45.180Z,11.2
2023-04-06T09:08:37.421Z,11.3
2023-04-06T09:14:29.420Z,10.3
2023-04-06T09:20:23.712Z,11.6
2023-04-06T09:26:17.143Z,11.2
2023-04-06T09:32:09.335Z,11.2
2023-04-06T09:38:05.322Z,11.4
2023-04-06T09:44:12.618Z,11.1
2023-04-06T09:50:05.227Z,11.2
2023-04-06T09:55:58.319Z,10.3
2023-04-06T10:01:50.166Z,10.1
2023-04-06T10:08:23.298Z,10.3
2023-04-06T10:14:14.247Z,10.5
2023-04-06T10:20:07.292Z,10.1
2023-04-06T10:25:58.317Z,11.4
2023-04-06T10:31:51.143Z,10.3
2023-04-06T10:37:47.078Z,10.6
2023-04-06T10:43:39.364Z,10.7
2023-04-06T10:49:33.616Z,10.7
2023-04-06T10:55:27.372Z,10.7
2023-04-06T11:01:44.777Z,10.4
2023-04-06T11:07:35.315Z,10.8
2023-04-06T11:13:28.465Z,10.6
2023-04-06T11:19:19.604Z,11.2
2023-04-06T11:25:11.921Z,10.5
2023-04-06T11:31:13.385Z,10.7
2023-04-06T11:37:05.294Z,10.9
2023-04-06T11:42:57.155Z,10.8
2023-04-06T11:48:47.044Z,10.9
2023-04-06T11:54:38.297Z,11.1
2023-04-06T12:00:41.137Z,11.2
2023-04-06T12:06:35.643Z,11.8
2023-04-06T12:12:28.723Z,11.1
2023-04-06T12:18:24.289Z,9.9
2023-04-06T12:24:19.561Z,9.9
2023-04-06T12:30:15.331Z,10.2
2023-04-06T12:36:06.992Z,9.3
2023-04-06T12:42:05.784Z,8.8
2023-04-06T12:48:02.665Z,8.3
2023-04-06T12:53:55.392Z,8.1
2023-04-06T12:59:49.382Z,8
2023-04-06T13:05:42.514Z,8.1
2023-04-06T13:11:38.473Z,9
2023-04-06T13:17:47.598Z,8.9
2023-04-06T13:23:49.879Z,8.2
2023-04-06T13:29:47.307Z,6.6
2023-04-06T13:35:38.869Z,5.3
2023-04-06T13:41:31.436Z,4.9
2023-04-06T13:47:35.726Z,5.5
2023-04-06T13:53:26.591Z,6.6
2023-04-06T13:59:24.974Z,4.6
2023-04-06T14:05:35.939Z,4.8
2023-04-06T14:11:38.120Z,5.7
2023-04-06T14:17:51.082Z,7.7
2023-04-06T14:24:10.422Z,8.1
2023-04-06T14:30:04.617Z,7.9
2023-04-06T14:35:54.454Z,9.4
2023-04-06T14:41:53.657Z,7.9
2023-04-06T14:47:50.927Z,6.7
2023-04-06T14:59:50.389Z,6.9
2023-04-06T15:06:09.663Z,7.5
2023-04-06T15:12:24.688Z,6.7
2023-04-06T15:18:24.965Z,6.1
2023-04-06T15:24:15.080Z,5.8
2023-04-06T15:30:07.257Z,6.1
2023-04-06T15:35:57.959Z,5.3
2023-04-06T15:41:48.203Z,6
2023-04-06T15:47:37.456Z,6.3
2023-04-06T15:53:28.514Z,6.9
2023-04-06T15:59:20.824Z,7.6
2023-04-06T16:05:10.567Z,7.6
2023-04-06T16:11:03.464Z,7.4
2023-04-06T16:16:53.934Z,7.7
2023-04-06T16:22:47.043Z,8.2
2023-04-06T16:28:38.507Z,9
2023-04-06T16:34:28.935Z,10.6
2023-04-06T16:40:21.180Z,10.9
2023-04-06T16:46:12.884Z,10.8
2023-04-06T16:52:04.309Z,11.3
2023-04-06T16:57:55.064Z,11.4
2023-04-06T17:03:46.977Z,11.8
2023-04-06T17:09:41.439Z,12.5
2023-04-06T17:15:33.022Z,12.3
2023-04-06T17:21:24.924Z,14
2023-04-06T17:27:17.832Z,12.6
2023-04-06T17:33:09.431Z,12.8
2023-04-06T17:39:02.346Z,14.9
2023-04-06T17:44:58.139Z,13.4
2023-04-06T17:50:49.057Z,15.1
2023-04-06T17:56:40.546Z,14.1
2023-04-06T18:02:33.904Z,14.3
2023-04-06T18:08:25.763Z,14.3
2023-04-06T18:14:19.118Z,14.9
2023-04-06T18:20:13.398Z,14.7
2023-04-06T18:26:07.676Z,15.7
2023-04-06T18:32:01.266Z,15.9
2023-04-06T18:37:54.132Z,17
2023-04-06T18:43:46.586Z,15.8
2023-04-06T18:49:40.764Z,19.3
2023-04-06T18:55:32.896Z,19.5
2023-04-06T19:01:25.829Z,20.8
2023-04-06T19:07:19.493Z,19.9
2023-04-06T19:13:16.248Z,19.3
2023-04-06T19:19:08.428Z,17.8
2023-04-06T19:25:01.388Z,18.9
2023-04-06T19:30:55.873Z,18
2023-04-06T19:36:48.794Z,18.5
2023-04-06T19:43:50.115Z,17.3
2023-04-06T19:49:41.284Z,15.8
2023-04-06T19:55:31.535Z,16
2023-04-06T20:01:25.122Z,16.9
2023-04-06T20:07:16.708Z,17.5
2023-04-06T20:13:07.997Z,16
2023-04-06T20:18:59.984Z,14.8
2023-04-06T20:24:50.262Z,14.1
2023-04-06T20:30:43.526Z,14.1
2023-04-06T20:36:35.040Z,15.9
2023-04-06T20:42:26.683Z,17
2023-04-06T20:48:17.550Z,20.3
2023-04-06T20:54:09.999Z,21.5
2023-04-06T21:00:01.395Z,22.3
2023-04-06T21:05:53.032Z,22.5
2023-04-06T21:11:44.663Z,23.4
2023-04-06T21:17:35.873Z,24.6
2023-04-06T21:23:27.260Z,25.5
2023-04-06T21:29:18.687Z,25.2
2023-04-06T21:35:11.285Z,25.1
2023-04-06T21:41:03.794Z,26.2
2023-04-06T21:46:56.634Z,25.5
2023-04-06T21:52:47.425Z,25.7
2023-04-06T21:58:38.909Z,25.6
2023-04-06T22:04:32.051Z,24.3
2023-04-06T22:10:24.882Z,24.1
2023-04-06T22:16:17.428Z,24.7
2023-04-06T22:22:07.479Z,22.9
2023-04-06T22:27:59.649Z,21.3
2023-04-06T22:33:51.345Z,22
2023-04-06T22:39:44.788Z,20.8
2023-04-06T22:45:35.892Z,19.8
2023-04-06T22:51:29.016Z,20.5
2023-04-06T22:57:20.899Z,20.9
2023-04-06T23:03:12.794Z,21.4
2023-04-06T23:09:05.488Z,21.2
2023-04-06T23:14:58.411Z,19.9
2023-04-06T23:20:49.535Z,20.2
2023-04-06T23:26:41.130Z,20.3
2023-04-06T23:32:33.790Z,18.5
2023-04-06T23:38:26.190Z,20
2023-04-06T23:44:17.630Z,20.4
2023-04-06T23:50:09.778Z,19.3
2023-04-06T23:56:02.152Z,20.3
